createdAt,value
2023-05-15T00:00:29.418Z,45.19
2023-05-15T00:01:00.855Z,45.17
2023-05-15T00:01:32.268Z,45.31
2023-05-15T00:02:03.677Z,45.46
2023-05-15T00:02:35.145Z,45.01
2023-05-15T00:03:06.702Z,45.14
2023-05-15T00:03:38.385Z,44.93
2023-05-15T00:04:09.879Z,44.93
2023-05-15T00:04:41.370Z,45.05
2023-05-15T00:05:12.933Z,44.79
2023-05-15T00:05:44.436Z,45.01
2023-05-15T00:06:15.845Z,45.33
2023-05-15T00:06:47.251Z,45.09
2023-05-15T00:07:18.659Z,45.42
2023-05-15T00:07:50.047Z,44.98
2023-05-15T00:08:21.477Z,45.41
2023-05-15T00:08:52.878Z,45.13
2023-05-15T00:09:24.289Z,45.11
2023-05-15T00:09:55.674Z,45.38
2023-05-15T00:10:27.095Z,44.87
2023-05-15T00:11:01.294Z,45.05
2023-05-15T00:11:33.514Z,44.74
2023-05-15T00:12:04.926Z,44.88
2023-05-15T00:12:36.324Z,45.21
2023-05-15T00:13:07.772Z,44.95
2023-05-15T00:13:39.176Z,45.20
2023-05-15T00:14:10.576Z,45.16
2023-05-15T00:14:42.003Z,45.12
2023-05-15T00:15:13.434Z,45.05
2023-05-15T00:15:44.872Z,44.88
2023-05-15T00:16:16.398Z,45.36
2023-05-15T00:16:47.855Z,45.23
2023-05-15T00:17:19.270Z,45.10
2023-05-15T00:17:50.697Z,44.96
2023-05-15T00:18:22.132Z,45.17
2023-05-15T00:18:53.561Z,45.11
2023-05-15T00:19:25.047Z,45.32
2023-05-15T00:19:56.446Z,45.66
2023-05-15T00:20:27.842Z,45.58
2023-05-15T00:20:59.238Z,45.17
2023-05-15T00:21:30.661Z,45.42
2023-05-15T00:22:02.156Z,44.92
2023-05-15T00:22:33.551Z,45.46
2023-05-15T00:23:04.951Z,45.19
2023-05-15T00:23:36.364Z,45.36
2023-05-15T00:24:07.786Z,45.41
2023-05-15T00:24:39.204Z,45.27
2023-05-15T00:25:10.595Z,45.07
2023-05-15T00:25:41.986Z,45.05
2023-05-15T00:26:13.393Z,45.28
2023-05-15T00:26:44.821Z,45.07
2023-05-15T00:27:16.221Z,45.54
2023-05-15T00:27:47.618Z,45.35
2023-05-15T00:28:19.035Z,45.26
2023-05-15T00:28:50.442Z,45.14
2023-05-15T00:29:21.850Z,45.44
2023-05-15T00:29:53.262Z,45.19
2023-05-15T00:30:24.665Z,45.26
2023-05-15T00:30:56.095Z,45.16
2023-05-15T00:31:27.574Z,45.06
2023-05-15T00:31:59.169Z,45.15
2023-05-15T00:32:30.633Z,45.64
2023-05-15T00:33:02.138Z,45.21
2023-05-15T00:33:33.557Z,45.45
2023-05-15T00:34:04.981Z,45.35
2023-05-15T00:34:36.442Z,44.78
2023-05-15T00:35:07.863Z,45.06
2023-05-15T00:35:39.270Z,45.08
2023-05-15T00:36:10.692Z,45.67
2023-05-15T00:36:42.139Z,45.00
2023-05-15T00:37:13.556Z,45.15
2023-05-15T00:37:44.967Z,45.12
2023-05-15T00:38:16.397Z,45.43
2023-05-15T00:38:47.798Z,45.41
2023-05-15T00:39:19.220Z,45.49
2023-05-15T00:39:50.660Z,45.05
2023-05-15T00:40:22.061Z,45.19
2023-05-15T00:40:53.471Z,45.48
2023-05-15T00:41:24.866Z,45.19
2023-05-15T00:41:56.286Z,45.46
2023-05-15T00:42:27.708Z,45.48
2023-05-15T00:42:59.107Z,45.41
2023-05-15T00:43:30.504Z,45.53
2023-05-15T00:44:01.918Z,45.66
2023-05-15T00:44:33.306Z,45.25
2023-05-15T00:45:04.724Z,44.88
2023-05-15T00:45:36.139Z,45.34
2023-05-15T00:46:07.532Z,44.96
2023-05-15T00:46:38.976Z,45.46
2023-05-15T00:47:10.521Z,45.43
2023-05-15T00:47:42.051Z,45.23
2023-05-15T00:48:13.460Z,45.38
2023-05-15T00:48:44.883Z,44.89
2023-05-15T00:49:16.285Z,45.30
2023-05-15T00:49:47.682Z,45.46
2023-05-15T00:50:19.093Z,45.30
2023-05-15T00:50:50.537Z,45.21
2023-05-15T00:51:21.923Z,45.15
2023-05-15T00:51:53.324Z,44.91
2023-05-15T00:52:24.746Z,45.11
2023-05-15T00:52:56.214Z,45.08
2023-05-15T00:53:27.670Z,45.20
2023-05-15T00:53:59.136Z,45.48
2023-05-15T00:54:30.638Z,45.18
2023-05-15T00:55:02.046Z,45.10
2023-05-15T00:55:33.435Z,45.21
2023-05-15T00:56:04.849Z,45.20
2023-05-15T00:56:36.266Z,45.42
2023-05-15T00:57:07.667Z,45.00
2023-05-15T00:57:39.124Z,45.52
2023-05-15T00:58:10.555Z,45.32
2023-05-15T00:58:41.971Z,45.74
2023-05-15T00:59:13.372Z,44.93
2023-05-15T00:59:44.783Z,45.01
2023-05-15T01:00:16.172Z,45.26
2023-05-15T01:00:47.610Z,45.28
2023-05-15T01:01:19.117Z,45.06
2023-05-15T01:01:50.548Z,45.15
2023-05-15T01:02:21.979Z,45.52
2023-05-15T01:02:53.421Z,45.50
2023-05-15T01:03:24.911Z,45.30
2023-05-15T01:03:56.318Z,45.42
2023-05-15T01:04:27.722Z,45.05
2023-05-15T01:04:59.115Z,45.03
2023-05-15T01:05:30.515Z,45.39
2023-05-15T01:06:01.929Z,45.28
2023-05-15T01:06:33.338Z,45.21
2023-05-15T01:07:04.744Z,45.37
2023-05-15T01:07:36.147Z,45.08
2023-05-15T01:08:07.558Z,45.24
2023-05-15T01:08:38.989Z,45.49
2023-05-15T01:09:10.392Z,45.25
2023-05-15T01:09:41.810Z,45.49
2023-05-15T01:10:13.220Z,45.06
2023-05-15T01:10:44.639Z,45.04
2023-05-15T01:11:16.057Z,45.32
2023-05-15T01:11:47.459Z,45.48
2023-05-15T01:12:18.901Z,45.48
2023-05-15T01:12:50.330Z,45.14
2023-05-15T01:13:21.757Z,45.10
2023-05-15T01:13:53.188Z,45.18
2023-05-15T01:14:24.630Z,45.28
2023-05-15T01:14:56.046Z,45.26
2023-05-15T01:15:27.484Z,45.31
2023-05-15T01:15:58.922Z,45.63
2023-05-15T01:16:30.331Z,45.45
2023-05-15T01:17:01.743Z,45.35
2023-05-15T01:17:33.184Z,44.86
2023-05-15T01:18:04.677Z,45.43
2023-05-15T01:18:36.296Z,45.02
2023-05-15T01:19:07.846Z,45.38
2023-05-15T01:19:39.440Z,45.56
2023-05-15T01:20:10.970Z,45.25
2023-05-15T01:20:42.365Z,45.22
2023-05-15T01:21:13.765Z,45.38
2023-05-15T01:21:45.174Z,44.99
2023-05-15T01:22:16.568Z,45.13
2023-05-15T01:22:47.983Z,45.26
2023-05-15T01:23:19.397Z,45.49
2023-05-15T01:23:50.799Z,44.92
2023-05-15T01:24:22.227Z,45.12
2023-05-15T01:24:53.633Z,45.23
2023-05-15T01:25:25.221Z,44.94
2023-05-15T01:25:56.847Z,45.47
2023-05-15T01:26:28.271Z,45.35
2023-05-15T01:26:59.664Z,45.25
2023-05-15T01:27:31.075Z,45.53
2023-05-15T01:28:02.490Z,45.47
2023-05-15T01:28:33.903Z,45.46
2023-05-15T01:29:05.294Z,45.32
2023-05-15T01:29:36.741Z,45.23
2023-05-15T01:30:08.212Z,45.53
2023-05-15T01:30:39.629Z,45.54
2023-05-15T01:31:11.027Z,45.01
2023-05-15T01:31:42.502Z,45.52
2023-05-15T01:32:13.987Z,44.91
2023-05-15T01:32:45.430Z,45.28
2023-05-15T01:33:16.915Z,45.38
2023-05-15T01:33:48.334Z,45.47
2023-05-15T01:34:19.741Z,45.69
2023-05-15T01:34:51.161Z,45.49
2023-05-15T01:35:22.634Z,45.54
2023-05-15T01:35:54.096Z,45.22
2023-05-15T01:36:25.630Z,45.32
2023-05-15T01:36:57.038Z,45.40
2023-05-15T01:37:28.437Z,45.26
2023-05-15T01:37:59.825Z,45.14
2023-05-15T01:38:31.227Z,44.82
2023-05-15T01:39:02.621Z,44.94
2023-05-15T01:39:34.009Z,45.31
2023-05-15T01:40:05.426Z,45.15
2023-05-15T01:40:36.826Z,45.63
2023-05-15T01:41:08.235Z,45.65
2023-05-15T01:41:39.632Z,45.18
2023-05-15T01:42:11.042Z,45.32
2023-05-15T01:42:42.458Z,45.54
2023-05-15T01:43:13.872Z,44.93
2023-05-15T01:43:45.300Z,45.18
2023-05-15T01:44:16.738Z,45.46
2023-05-15T01:44:48.156Z,45.08
2023-05-15T01:45:19.569Z,45.76
2023-05-15T01:45:50.978Z,45.20
2023-05-15T01:46:22.425Z,45.16
2023-05-15T01:46:53.908Z,45.33
2023-05-15T01:47:25.405Z,45.30
2023-05-15T01:47:56.857Z,45.26
2023-05-15T01:48:28.305Z,45.40
2023-05-15T01:48:59.753Z,45.04
2023-05-15T01:49:31.168Z,45.20
2023-05-15T01:50:02.576Z,45.15
2023-05-15T01:50:34.023Z,45.45
2023-05-15T01:51:05.460Z,45.04
2023-05-15T01:51:36.861Z,45.54
2023-05-15T01:52:08.249Z,45.34
2023-05-15T01:52:39.701Z,44.96
2023-05-15T01:53:11.141Z,45.50
2023-05-15T01:53:42.564Z,45.42
2023-05-15T01:54:14.006Z,45.60
2023-05-15T01:54:45.434Z,45.17
2023-05-15T01:55:16.842Z,44.99
2023-05-15T01:55:48.257Z,45.31
2023-05-15T01:56:19.642Z,44.66
2023-05-15T01:56:51.054Z,45.47
2023-05-15T01:57:22.438Z,45.00
2023-05-15T01:57:53.848Z,45.26
2023-05-15T01:58:25.248Z,44.96
2023-05-15T01:58:56.649Z,45.12
2023-05-15T01:59:28.060Z,45.34
2023-05-15T01:59:59.452Z,45.53
2023-05-15T02:00:30.861Z,45.37
2023-05-15T02:01:02.286Z,45.48
2023-05-15T02:01:33.777Z,45.64
2023-05-15T02:02:05.327Z,45.44
2023-05-15T02:02:36.915Z,45.30
2023-05-15T02:03:08.512Z,45.05
2023-05-15T02:03:40.150Z,45.09
2023-05-15T02:04:11.711Z,45.16
2023-05-15T02:04:43.107Z,45.40
2023-05-15T02:05:14.531Z,45.26
2023-05-15T02:05:45.951Z,45.33
2023-05-15T02:06:17.386Z,45.24
2023-05-15T02:06:48.814Z,45.27
2023-05-15T02:07:20.256Z,45.16
2023-05-15T02:07:51.666Z,45.04
2023-05-15T02:08:23.085Z,45.09
2023-05-15T02:08:54.489Z,45.33
2023-05-15T02:09:25.911Z,45.60
2023-05-15T02:09:57.327Z,45.52
2023-05-15T02:10:28.781Z,45.24
2023-05-15T02:11:00.203Z,45.59
2023-05-15T02:11:31.619Z,45.15
2023-05-15T02:12:03.035Z,45.37
2023-05-15T02:12:34.444Z,45.40
2023-05-15T02:13:05.835Z,45.54
2023-05-15T02:13:37.246Z,45.19
2023-05-15T02:14:08.676Z,45.01
2023-05-15T02:14:40.087Z,45.28
2023-05-15T02:15:11.480Z,45.46
2023-05-15T02:15:42.887Z,45.29
2023-05-15T02:16:14.337Z,45.28
2023-05-15T02:16:45.833Z,45.38
2023-05-15T02:17:17.319Z,45.41
2023-05-15T02:17:48.786Z,45.37
2023-05-15T02:18:20.201Z,45.03
2023-05-15T02:18:51.618Z,45.37
2023-05-15T02:19:23.076Z,45.09
2023-05-15T02:19:54.458Z,45.39
2023-05-15T02:20:25.851Z,45.26
2023-05-15T02:20:57.234Z,45.41
2023-05-15T02:21:28.637Z,45.16
2023-05-15T02:22:00.030Z,45.37
2023-05-15T02:22:31.422Z,45.37
2023-05-15T02:23:02.836Z,45.15
2023-05-15T02:23:34.251Z,45.61
2023-05-15T02:24:05.643Z,45.38
2023-05-15T02:24:37.073Z,45.30
2023-05-15T02:25:08.500Z,45.44
2023-05-15T02:25:39.911Z,45.62
2023-05-15T02:26:11.321Z,45.44
2023-05-15T02:26:42.714Z,45.20
2023-05-15T02:27:14.135Z,45.37
2023-05-15T02:27:45.545Z,45.45
2023-05-15T02:28:16.993Z,45.41
2023-05-15T02:28:48.399Z,44.97
2023-05-15T02:29:19.796Z,45.77
2023-05-15T02:29:51.195Z,45.71
2023-05-15T02:30:22.607Z,45.31
2023-05-15T02:30:54.022Z,45.54
2023-05-15T02:31:25.430Z,45.31
2023-05-15T02:31:56.925Z,45.27
2023-05-15T02:32:28.409Z,45.58
2023-05-15T02:32:59.888Z,45.39
2023-05-15T02:33:31.332Z,45.66
2023-05-15T02:34:02.724Z,45.64
2023-05-15T02:34:34.137Z,45.79
2023-05-15T02:35:05.539Z,45.56
2023-05-15T02:35:36.984Z,45.71
2023-05-15T02:36:08.390Z,45.53
2023-05-15T02:36:39.795Z,45.41
2023-05-15T02:37:11.200Z,45.61
2023-05-15T02:37:42.602Z,45.64
2023-05-15T02:38:14.009Z,45.15
2023-05-15T02:38:45.414Z,45.47
2023-05-15T02:39:16.819Z,45.56
2023-05-15T02:39:48.233Z,45.17
2023-05-15T02:40:19.631Z,45.27
2023-05-15T02:40:51.106Z,45.40
2023-05-15T02:41:22.540Z,45.55
2023-05-15T02:41:53.937Z,45.36
2023-05-15T02:42:25.397Z,45.14
2023-05-15T02:42:56.804Z,45.70
2023-05-15T02:43:28.219Z,45.23
2023-05-15T02:43:59.617Z,45.40
2023-05-15T02:44:31.030Z,45.70
2023-05-15T02:45:02.439Z,45.59
2023-05-15T02:45:33.924Z,45.13
2023-05-15T02:46:05.461Z,45.45
2023-05-15T02:46:36.894Z,45.34
2023-05-15T02:47:08.304Z,45.43
2023-05-15T02:47:39.727Z,45.45
2023-05-15T02:48:11.267Z,45.55
2023-05-15T02:48:42.677Z,45.19
2023-05-15T02:49:14.097Z,45.30
2023-05-15T02:49:45.499Z,45.24
2023-05-15T02:50:16.924Z,45.20
2023-05-15T02:50:48.343Z,45.14
2023-05-15T02:51:19.769Z,45.41
2023-05-15T02:51:51.171Z,45.54
2023-05-15T02:52:22.580Z,45.26
2023-05-15T02:52:53.982Z,45.34
2023-05-15T02:53:25.408Z,45.45
2023-05-15T02:53:56.822Z,45.42
2023-05-15T02:54:28.235Z,45.55
2023-05-15T02:54:59.665Z,45.69
2023-05-15T02:55:31.083Z,45.40
2023-05-15T02:56:02.513Z,45.33
2023-05-15T02:56:33.945Z,45.28
2023-05-15T02:57:05.346Z,45.06
2023-05-15T02:57:36.755Z,45.16
2023-05-15T02:58:08.152Z,44.96
2023-05-15T02:58:39.571Z,45.31
2023-05-15T02:59:10.971Z,45.38
2023-05-15T02:59:42.416Z,45.00
2023-05-15T03:00:13.873Z,45.35
2023-05-15T03:00:45.279Z,45.58
2023-05-15T03:01:16.708Z,45.46
2023-05-15T03:01:48.172Z,45.38
2023-05-15T03:02:19.595Z,45.24
2023-05-15T03:02:51.074Z,45.26
2023-05-15T03:03:22.513Z,45.25
2023-05-15T03:03:53.978Z,45.09
2023-05-15T03:04:25.421Z,45.24
2023-05-15T03:04:56.904Z,45.02
2023-05-15T03:05:28.568Z,45.38
2023-05-15T03:06:00.230Z,45.27
2023-05-15T03:06:31.680Z,45.49
2023-05-15T03:07:03.086Z,45.33
2023-05-15T03:07:34.501Z,45.83
2023-05-15T03:08:05.916Z,45.19
2023-05-15T03:08:37.328Z,45.37
2023-05-15T03:09:08.734Z,44.98
2023-05-15T03:09:40.133Z,45.21
2023-05-15T03:10:11.560Z,45.68
2023-05-15T03:10:43.307Z,45.25
2023-05-15T03:11:14.746Z,45.31
2023-05-15T03:11:46.143Z,45.20
2023-05-15T03:12:17.545Z,45.07
2023-05-15T03:12:48.975Z,45.27
2023-05-15T03:13:20.391Z,45.35
2023-05-15T03:13:51.806Z,44.98
2023-05-15T03:14:23.212Z,45.23
2023-05-15T03:14:54.638Z,45.11
2023-05-15T03:15:26.212Z,45.63
2023-05-15T03:15:57.850Z,45.88
2023-05-15T03:16:29.352Z,45.14
2023-05-15T03:17:00.776Z,45.31
2023-05-15T03:17:32.238Z,44.99
2023-05-15T03:18:03.678Z,45.70
2023-05-15T03:18:35.136Z,45.66
2023-05-15T03:19:06.616Z,45.59
2023-05-15T03:19:38.020Z,45.41
2023-05-15T03:20:09.446Z,45.58
2023-05-15T03:20:40.848Z,45.12
2023-05-15T03:21:12.335Z,45.21
2023-05-15T03:21:43.782Z,45.37
2023-05-15T03:22:15.226Z,45.50
2023-05-15T03:22:46.652Z,45.30
2023-05-15T03:23:18.065Z,45.54
2023-05-15T03:23:49.463Z,45.71
2023-05-15T03:24:20.874Z,45.64
2023-05-15T03:24:52.296Z,45.13
2023-05-15T03:25:23.875Z,45.34
2023-05-15T03:25:55.429Z,45.80
2023-05-15T03:26:26.886Z,45.40
2023-05-15T03:26:58.342Z,45.13
2023-05-15T03:27:29.761Z,45.23
2023-05-15T03:28:01.169Z,45.24
2023-05-15T03:28:32.567Z,45.26
2023-05-15T03:29:03.979Z,45.01
2023-05-15T03:29:35.400Z,45.35
2023-05-15T03:30:06.820Z,45.46
2023-05-15T03:30:38.235Z,45.27
2023-05-15T03:31:09.724Z,45.17
2023-05-15T03:31:41.249Z,45.26
2023-05-15T03:32:12.698Z,45.36
2023-05-15T03:32:44.145Z,45.53
2023-05-15T03:33:15.589Z,45.47
2023-05-15T03:33:47.002Z,45.03
2023-05-15T03:34:18.396Z,45.17
2023-05-15T03:34:49.802Z,45.75
2023-05-15T03:35:21.221Z,45.02
2023-05-15T03:35:52.634Z,45.79
2023-05-15T03:36:24.045Z,45.30
2023-05-15T03:36:55.452Z,45.59
2023-05-15T03:37:26.880Z,45.06
2023-05-15T03:37:58.274Z,45.70
2023-05-15T03:38:29.689Z,45.17
2023-05-15T03:39:01.081Z,45.58
2023-05-15T03:39:32.490Z,45.47
2023-05-15T03:40:03.904Z,45.33
2023-05-15T03:40:35.339Z,45.60
2023-05-15T03:41:06.743Z,46.08
2023-05-15T03:41:38.169Z,45.44
2023-05-15T03:42:09.613Z,45.42
2023-05-15T03:42:41.054Z,45.40
2023-05-15T03:43:12.466Z,45.30
2023-05-15T03:43:43.907Z,45.33
2023-05-15T03:44:15.309Z,45.40
2023-05-15T03:44:46.698Z,45.24
2023-05-15T03:45:18.106Z,45.82
2023-05-15T03:45:49.516Z,45.25
2023-05-15T03:46:20.943Z,45.52
2023-05-15T03:46:52.384Z,45.58
2023-05-15T03:47:23.965Z,45.34
2023-05-15T03:47:55.505Z,45.32
2023-05-15T03:48:26.940Z,45.61
2023-05-15T03:48:58.363Z,45.21
2023-05-15T03:49:29.751Z,45.17
2023-05-15T03:50:01.198Z,45.73
2023-05-15T03:50:32.622Z,45.13
2023-05-15T03:51:04.029Z,45.23
2023-05-15T03:51:35.443Z,45.37
2023-05-15T03:52:06.897Z,45.62
2023-05-15T03:52:40.086Z,45.49
2023-05-15T03:53:12.940Z,45.72
2023-05-15T03:53:44.357Z,45.11
2023-05-15T03:54:15.766Z,45.38
2023-05-15T03:54:47.179Z,45.25
2023-05-15T03:55:18.579Z,45.42
2023-05-15T03:55:49.989Z,45.48
2023-05-15T03:56:21.404Z,45.46
2023-05-15T03:56:52.816Z,45.82
2023-05-15T03:57:24.245Z,45.76
2023-05-15T03:57:55.764Z,45.18
2023-05-15T03:58:27.190Z,45.46
2023-05-15T03:58:58.610Z,45.51
2023-05-15T03:59:30.022Z,45.14
2023-05-15T04:00:01.419Z,45.40
2023-05-15T04:00:32.838Z,45.99
2023-05-15T04:01:04.262Z,45.26
2023-05-15T04:01:44.068Z,45.18
2023-05-15T04:02:22.759Z,45.21
2023-05-15T04:02:54.319Z,45.60
2023-05-15T04:03:25.876Z,45.41
2023-05-15T04:03:57.377Z,45.10
2023-05-15T04:04:28.790Z,45.57
2023-05-15T04:05:00.251Z,45.40
2023-05-15T04:05:31.774Z,45.25
2023-05-15T04:06:03.197Z,45.72
2023-05-15T04:06:34.594Z,45.19
2023-05-15T04:07:06.015Z,45.62
2023-05-15T04:07:37.468Z,45.40
2023-05-15T04:08:08.962Z,45.22
2023-05-15T04:08:40.987Z,45.56
2023-05-15T04:09:13.061Z,45.09
2023-05-15T04:09:44.461Z,45.49
2023-05-15T04:10:15.888Z,45.45
2023-05-15T04:10:47.296Z,45.75
2023-05-15T04:11:18.708Z,45.47
2023-05-15T04:11:50.116Z,45.60
2023-05-15T04:12:21.544Z,45.72
2023-05-15T04:12:52.950Z,45.33
2023-05-15T04:13:24.370Z,45.72
2023-05-15T04:13:55.806Z,45.40
2023-05-15T04:14:27.220Z,45.68
2023-05-15T04:14:58.622Z,45.39
2023-05-15T04:15:30.051Z,45.60
2023-05-15T04:16:01.500Z,45.54
2023-05-15T04:16:33.022Z,45.52
2023-05-15T04:17:04.473Z,45.24
2023-05-15T04:17:35.913Z,45.76
2023-05-15T04:18:07.350Z,45.54
2023-05-15T04:18:38.798Z,45.84
2023-05-15T04:19:10.302Z,45.80
2023-05-15T04:19:43.032Z,45.45
2023-05-15T04:20:14.603Z,45.36
2023-05-15T04:20:46.025Z,45.39
2023-05-15T04:21:17.438Z,45.50
2023-05-15T04:21:48.877Z,45.67
2023-05-15T04:22:20.307Z,45.38
2023-05-15T04:22:51.716Z,45.41
2023-05-15T04:23:23.124Z,45.30
2023-05-15T04:23:54.548Z,45.13
2023-05-15T04:24:26.004Z,45.46
2023-05-15T04:24:57.414Z,45.31
2023-05-15T04:25:28.813Z,45.65
2023-05-15T04:26:00.214Z,45.27
2023-05-15T04:26:31.732Z,45.27
2023-05-15T04:27:03.226Z,45.64
2023-05-15T04:27:34.653Z,45.50
2023-05-15T04:28:06.058Z,45.40
2023-05-15T04:28:37.486Z,45.21
2023-05-15T04:29:08.907Z,45.43
2023-05-15T04:29:40.344Z,45.31
2023-05-15T04:30:11.740Z,45.54
2023-05-15T04:30:43.148Z,45.32
2023-05-15T04:31:14.543Z,45.75
2023-05-15T04:31:46.001Z,45.39
2023-05-15T04:32:17.433Z,45.67
2023-05-15T04:32:48.905Z,45.31
2023-05-15T04:33:20.367Z,45.14
2023-05-15T04:33:51.808Z,45.17
2023-05-15T04:34:23.236Z,45.52
2023-05-15T04:34:54.666Z,45.63
2023-05-15T04:35:26.294Z,45.46
2023-05-15T04:35:57.972Z,45.37
2023-05-15T04:36:29.384Z,45.72
2023-05-15T04:37:00.794Z,45.65
2023-05-15T04:37:32.198Z,45.19
2023-05-15T04:38:03.605Z,45.44
2023-05-15T04:38:34.999Z,45.54
2023-05-15T04:39:06.429Z,45.27
2023-05-15T04:39:37.852Z,45.44
2023-05-15T04:40:09.298Z,46.13
2023-05-15T04:40:40.733Z,45.69
2023-05-15T04:41:12.148Z,45.51
2023-05-15T04:41:43.543Z,45.46
2023-05-15T04:42:14.957Z,45.92
2023-05-15T04:42:46.350Z,45.62
2023-05-15T04:43:17.756Z,46.16
2023-05-15T04:43:49.155Z,45.65
2023-05-15T04:44:20.575Z,45.31
2023-05-15T04:44:51.981Z,45.87
2023-05-15T04:45:23.563Z,45.92
2023-05-15T04:45:55.066Z,46.04
2023-05-15T04:46:26.569Z,45.54
2023-05-15T04:46:58.039Z,46.42
2023-05-15T04:47:29.509Z,45.74
2023-05-15T04:48:01.027Z,45.90
2023-05-15T04:48:32.445Z,45.66
2023-05-15T04:49:03.869Z,45.50
2023-05-15T04:49:35.320Z,45.94
2023-05-15T04:50:06.745Z,45.76
2023-05-15T04:50:38.165Z,45.48
2023-05-15T04:51:09.588Z,45.86
2023-05-15T04:51:40.999Z,45.62
2023-05-15T04:52:12.399Z,45.81
2023-05-15T04:52:43.815Z,45.42
2023-05-15T04:53:15.218Z,45.80
2023-05-15T04:53:46.669Z,45.33
2023-05-15T04:54:18.070Z,45.53
2023-05-15T04:54:49.476Z,45.66
2023-05-15T04:55:20.913Z,45.71
2023-05-15T04:55:52.329Z,45.54
2023-05-15T04:56:23.755Z,45.70
2023-05-15T04:56:55.166Z,45.61
2023-05-15T04:57:26.605Z,45.32
2023-05-15T04:57:58.018Z,45.93
2023-05-15T04:58:29.437Z,45.75
2023-05-15T04:59:00.861Z,46.18
2023-05-15T04:59:32.307Z,45.50
2023-05-15T05:00:03.713Z,45.76
2023-05-15T05:00:35.120Z,45.60
2023-05-15T05:01:06.575Z,45.43
2023-05-15T05:01:38.069Z,45.24
2023-05-15T05:02:09.496Z,45.32
2023-05-15T05:02:40.937Z,45.77
2023-05-15T05:03:12.447Z,45.32
2023-05-15T05:03:43.929Z,45.53
2023-05-15T05:04:15.466Z,45.40
2023-05-15T05:04:46.918Z,45.53
2023-05-15T05:05:18.338Z,45.17
2023-05-15T05:05:49.734Z,45.85
2023-05-15T05:06:21.138Z,45.50
2023-05-15T05:06:52.547Z,46.11
2023-05-15T05:07:23.941Z,45.76
2023-05-15T05:07:55.345Z,45.49
2023-05-15T05:08:26.763Z,45.68
2023-05-15T05:08:58.191Z,45.58
2023-05-15T05:09:29.602Z,45.72
2023-05-15T05:10:01.014Z,45.77
2023-05-15T05:10:32.426Z,45.17
2023-05-15T05:11:03.840Z,45.58
2023-05-15T05:11:35.298Z,45.96
2023-05-15T05:12:06.702Z,45.67
2023-05-15T05:12:38.119Z,45.38
2023-05-15T05:13:09.520Z,45.12
2023-05-15T05:13:40.934Z,45.71
2023-05-15T05:14:12.346Z,45.67
2023-05-15T05:14:43.754Z,45.69
2023-05-15T05:15:15.175Z,45.46
2023-05-15T05:15:46.610Z,45.53
2023-05-15T05:16:18.156Z,45.48
2023-05-15T05:16:49.630Z,45.46
2023-05-15T05:17:21.031Z,45.39
2023-05-15T05:17:52.462Z,45.52
2023-05-15T05:18:23.941Z,45.41
2023-05-15T05:18:55.427Z,44.99
2023-05-15T05:19:26.863Z,45.45
2023-05-15T05:19:58.289Z,45.13
2023-05-15T05:20:29.694Z,45.64
2023-05-15T05:21:01.182Z,45.36
2023-05-15T05:21:32.617Z,45.74
2023-05-15T05:22:04.070Z,45.36
2023-05-15T05:22:35.482Z,45.74
2023-05-15T05:23:06.903Z,45.63
2023-05-15T05:23:38.333Z,45.49
2023-05-15T05:24:09.815Z,45.39
2023-05-15T05:24:41.230Z,45.57
2023-05-15T05:25:12.637Z,45.14
2023-05-15T05:25:44.026Z,45.17
2023-05-15T05:26:15.434Z,45.59
2023-05-15T05:26:46.837Z,45.20
2023-05-15T05:27:18.271Z,45.41
2023-05-15T05:27:49.671Z,45.38
2023-05-15T05:28:21.091Z,45.12
2023-05-15T05:28:52.478Z,45.34
2023-05-15T05:29:23.911Z,45.35
2023-05-15T05:29:55.305Z,45.51
2023-05-15T05:30:26.709Z,45.41
2023-05-15T05:30:58.122Z,45.33
2023-05-15T05:31:29.589Z,45.03
2023-05-15T05:32:01.054Z,45.29
2023-05-15T05:32:32.602Z,45.01
2023-05-15T05:33:04.172Z,45.68
2023-05-15T05:33:35.646Z,45.42
2023-05-15T05:34:07.076Z,45.61
2023-05-15T05:34:38.493Z,45.00
2023-05-15T05:35:09.922Z,45.25
2023-05-15T05:35:41.339Z,45.43
2023-05-15T05:36:12.746Z,45.59
2023-05-15T05:36:44.154Z,45.52
2023-05-15T05:37:15.661Z,45.05
2023-05-15T05:37:47.082Z,45.50
2023-05-15T05:38:18.488Z,45.22
2023-05-15T05:38:49.876Z,45.45
2023-05-15T05:39:21.329Z,45.22
2023-05-15T05:39:52.779Z,45.40
2023-05-15T05:40:24.191Z,45.16
2023-05-15T05:40:55.585Z,45.25
2023-05-15T05:41:26.976Z,45.44
2023-05-15T05:41:58.395Z,45.41
2023-05-15T05:42:29.816Z,45.29
2023-05-15T05:43:01.234Z,45.19
2023-05-15T05:43:32.646Z,45.24
2023-05-15T05:44:04.038Z,45.20
2023-05-15T05:44:35.447Z,45.70
2023-05-15T05:45:06.899Z,45.69
2023-05-15T05:45:38.319Z,45.22
2023-05-15T05:46:09.727Z,45.54
2023-05-15T05:46:41.173Z,45.81
2023-05-15T05:47:12.631Z,45.19
2023-05-15T05:47:44.058Z,45.65
2023-05-15T05:48:15.512Z,45.31
2023-05-15T05:48:46.928Z,45.34
2023-05-15T05:49:18.347Z,45.38
2023-05-15T05:49:49.750Z,45.08
2023-05-15T05:50:21.203Z,45.57
2023-05-15T05:50:52.595Z,45.07
2023-05-15T05:51:23.995Z,45.11
2023-05-15T05:51:55.410Z,45.26
2023-05-15T05:52:26.823Z,45.14
2023-05-15T05:52:58.261Z,45.72
2023-05-15T05:53:29.666Z,45.61
2023-05-15T05:54:01.070Z,45.41
2023-05-15T05:54:32.488Z,45.55
2023-05-15T05:55:03.894Z,45.31
2023-05-15T05:55:35.356Z,45.06
2023-05-15T05:56:06.755Z,45.14
2023-05-15T05:56:38.147Z,45.24
2023-05-15T05:57:09.539Z,45.21
2023-05-15T05:57:40.939Z,45.39
2023-05-15T05:58:18.300Z,45.14
2023-05-15T05:58:56.411Z,45.30
2023-05-15T05:59:27.950Z,45.16
2023-05-15T05:59:59.357Z,45.37
2023-05-15T06:00:30.952Z,45.30
2023-05-15T06:01:02.446Z,45.35
2023-05-15T06:01:33.857Z,45.67
2023-05-15T06:02:05.332Z,45.29
2023-05-15T06:02:36.876Z,45.18
2023-05-15T06:03:08.436Z,45.47
2023-05-15T06:03:39.979Z,44.75
2023-05-15T06:04:11.532Z,45.34
2023-05-15T06:04:42.981Z,45.44
2023-05-15T06:05:14.407Z,45.23
2023-05-15T06:05:45.842Z,45.34
2023-05-15T06:06:17.315Z,45.03
2023-05-15T06:06:48.719Z,45.10
2023-05-15T06:07:20.137Z,45.01
2023-05-15T06:07:51.544Z,45.52
2023-05-15T06:08:22.934Z,45.66
2023-05-15T06:08:56.300Z,45.04
2023-05-15T06:09:28.012Z,45.41
2023-05-15T06:09:59.438Z,44.96
2023-05-15T06:10:30.847Z,44.89
2023-05-15T06:11:02.269Z,44.88
2023-05-15T06:11:33.711Z,44.82
2023-05-15T06:12:05.114Z,45.16
2023-05-15T06:12:36.509Z,44.38
2023-05-15T06:13:07.931Z,44.96
2023-05-15T06:13:39.337Z,44.75
2023-05-15T06:14:10.740Z,44.85
2023-05-15T06:14:42.133Z,45.02
2023-05-15T06:15:13.559Z,45.22
2023-05-15T06:15:44.957Z,44.49
2023-05-15T06:16:16.358Z,44.88
2023-05-15T06:16:47.867Z,44.60
2023-05-15T06:17:19.295Z,44.25
2023-05-15T06:17:50.768Z,44.54
2023-05-15T06:18:22.229Z,44.79
2023-05-15T06:18:53.664Z,44.21
2023-05-15T06:19:25.104Z,44.59
2023-05-15T06:19:56.519Z,44.18
2023-05-15T06:20:27.988Z,44.52
2023-05-15T06:20:59.415Z,44.54
2023-05-15T06:21:30.821Z,44.17
2023-05-15T06:22:02.230Z,44.35
2023-05-15T06:22:33.654Z,44.51
2023-05-15T06:23:05.077Z,44.22
2023-05-15T06:23:36.504Z,44.60
2023-05-15T06:24:07.964Z,44.20
2023-05-15T06:24:39.364Z,44.17
2023-05-15T06:25:10.785Z,43.87
2023-05-15T06:25:42.198Z,44.14
2023-05-15T06:26:13.716Z,44.15
2023-05-15T06:26:45.165Z,43.84
2023-05-15T06:27:16.587Z,43.82
2023-05-15T06:27:48.005Z,44.42
2023-05-15T06:28:19.425Z,44.41
2023-05-15T06:28:50.825Z,44.18
2023-05-15T06:29:22.279Z,44.09
2023-05-15T06:29:53.772Z,44.21
2023-05-15T06:30:25.405Z,43.82
2023-05-15T06:30:57.130Z,43.95
2023-05-15T06:31:28.642Z,43.73
2023-05-15T06:32:00.124Z,43.94
2023-05-15T06:32:32.539Z,43.98
2023-05-15T06:33:05.814Z,43.87
2023-05-15T06:33:37.414Z,44.37
2023-05-15T06:34:08.835Z,43.96
2023-05-15T06:34:40.230Z,44.30
2023-05-15T06:35:11.639Z,44.10
2023-05-15T06:35:43.043Z,44.10
2023-05-15T06:36:14.456Z,44.08
2023-05-15T06:36:45.849Z,43.90
2023-05-15T06:37:17.274Z,44.12
2023-05-15T06:37:48.679Z,44.42
2023-05-15T06:38:20.083Z,43.78
2023-05-15T06:38:51.511Z,44.03
2023-05-15T06:39:22.907Z,43.79
2023-05-15T06:39:54.324Z,44.20
2023-05-15T06:40:26.004Z,43.88
2023-05-15T06:40:57.583Z,44.13
2023-05-15T06:41:29.002Z,43.80
2023-05-15T06:42:00.409Z,44.00
2023-05-15T06:42:31.903Z,43.89
2023-05-15T06:43:03.316Z,43.82
2023-05-15T06:43:36.374Z,44.07
2023-05-15T06:44:07.895Z,44.27
2023-05-15T06:44:39.314Z,43.94
2023-05-15T06:45:10.764Z,43.95
2023-05-15T06:45:42.157Z,44.06